Time;durP1;ratioP1;P1;durP2;ratioP2;P2;SDS_P1;SDS_P2;PMS_P1;PMS_P2;Temp;Humidity;BMP_temperature;BMP_pressure;BME280_temperature;BME280_humidity;BME280_pressure;Samples;Min_cycle;Max_cycle;Signal;HPM_P1;HPM_P2
2021/08/24 00:02:23;;;;;;;11.00;7.20;;;;;;;;;;5019219;28;20331;-66
2021/08/24 00:04:48;;;;;;;14.32;7.85;;;;;;;;;;5024962;28;20640;-65
2021/08/24 00:07:14;;;;;;;10.10;7.43;;;;;;;;;;5024967;28;20030;-66
2021/08/24 00:09:39;;;;;;;8.13;5.78;;;;;;;;;;5020265;28;20052;-67
2021/08/24 00:12:05;;;;;;;8.73;5.70;;;;;;;;;;5017298;28;20124;-66
2021/08/24 00:14:31;;;;;;;9.38;5.72;;;;;;;;;;5027340;28;20327;-66
2021/08/24 00:16:56;;;;;;;7.20;5.00;;;;;;;;;;5022641;28;20025;-66
2021/08/24 00:19:21;;;;;;;5.80;4.15;;;;;;;;;;5022977;28;20022;-66
2021/08/24 00:21:46;;;;;;;5.70;4.50;;;;;;;;;;5028391;28;20030;-66
2021/08/24 00:24:12;;;;;;;6.10;4.70;;;;;;;;;;5027314;28;20039;-67
2021/08/24 00:26:37;;;;;;;5.95;4.63;;;;;;;;;;5018574;28;20052;-66
2021/08/24 00:29:03;;;;;;;5.80;4.55;;;;;;;;;;5032318;28;20025;-66
2021/08/24 00:31:28;;;;;;;6.93;4.85;;;;;;;;;;5029761;28;20234;-66
2021/08/24 00:33:53;;;;;;;6.97;4.22;;;;;;;;;;5026321;28;20021;-66
2021/08/24 00:36:22;;;;;;;4.85;3.78;;;;;;;;;;5029205;28;20044;-65
2021/08/24 00:38:48;;;;;;;5.53;3.42;;;;;;;;;;5029303;28;20021;-66
2021/08/24 00:41:13;;;;;;;5.10;4.10;;;;;;;;;;5031368;28;20029;-66
2021/08/24 00:43:40;;;;;;;6.38;4.30;;;;;;;;;;5031606;28;20025;-67
2021/08/24 00:46:08;;;;;;;5.47;4.40;;;;;;;;;;5029583;28;20025;-66
2021/08/24 00:48:33;;;;;;;5.70;4.68;;;;;;;;;;5020503;28;20380;-66
2021/08/24 00:50:58;;;;;;;5.75;4.60;;;;;;;;;;5027459;28;20041;-66
2021/08/24 00:53:25;;;;;;;6.40;4.13;;;;;;;;;;5031063;28;20025;-65
2021/08/24 00:55:52;;;;;;;5.63;4.20;;;;;;;;;;5028881;28;20021;-66
2021/08/24 00:58:17;;;;;;;5.78;4.03;;;;;;;;;;5025071;28;20022;-66
2021/08/24 01:00:43;;;;;;;4.90;3.83;;;;;;;;;;5029352;28;20116;-66
2021/08/24 01:03:09;;;;;;;3.92;2.92;;;;;;;;;;5031049;28;20041;-66
2021/08/24 01:05:37;;;;;;;5.47;3.58;;;;;;;;;;5025260;28;20037;-66
2021/08/24 01:08:07;;;;;;;4.85;3.65;;;;;;;;;;5029909;28;20495;-66
2021/08/24 01:10:38;;;;;;;4.60;3.30;;;;;;;;;;5026813;28;20037;-65
2021/08/24 01:13:22;;;;;;;3.97;3.13;;;;;;;;;;5026491;28;20037;-66
2021/08/24 01:15:55;;;;;;;5.57;3.55;;;;;;;;;;5024195;28;20029;-65
2021/08/24 01:18:30;;;;;;;4.35;3.25;;;;;;;;;;5025299;28;20029;-66
2021/08/24 01:21:14;;;;;;;4.28;3.22;;;;;;;;;;5027747;28;20090;-66
2021/08/24 01:23:51;;;;;;;4.80;3.03;;;;;;;;;;5027537;28;20033;-66
2021/08/24 01:26:31;;;;;;;3.97;2.90;;;;;;;;;;5030703;28;20025;-66
2021/08/24 01:28:56;;;;;;;3.75;2.78;;;;;;;;;;5023642;28;20112;-66
2021/08/24 01:31:47;;;;;;;3.75;2.80;;;;;;;;;;5024039;28;20120;-65
2021/08/24 01:34:39;;;;;;;3.28;2.70;;;;;;;;;;5029066;28;20279;-65
2021/08/24 01:37:08;;;;;;;5.65;3.17;;;;;;;;;;5028863;28;20087;-66
2021/08/24 01:39:33;;;;;;;3.97;2.85;;;;;;;;;;5021560;28;20030;-67
2021/08/24 01:42:18;;;;;;;3.70;2.25;;;;;;;;;;5028703;28;20025;-65
2021/08/24 01:44:47;;;;;;;4.05;2.55;;;;;;;;;;5019125;28;20360;-66
2021/08/24 01:47:18;;;;;;;4.70;2.50;;;;;;;;;;5015501;28;20029;-66
2021/08/24 01:49:48;;;;;;;2.75;2.17;;;;;;;;;;5025160;28;20057;-66
2021/08/24 01:52:16;;;;;;;3.25;2.35;;;;;;;;;;5025711;28;20103;-66
2021/08/24 01:54:43;;;;;;;3.28;2.38;;;;;;;;;;5027806;28;20013;-66
2021/08/24 01:57:11;;;;;;;3.13;2.42;;;;;;;;;;5028912;28;20056;-66
2021/08/24 01:59:40;;;;;;;4.07;2.22;;;;;;;;;;5030266;28;20104;-67
2021/08/24 02:02:13;;;;;;;4.40;2.35;;;;;;;;;;5029448;28;20117;-66
2021/08/24 02:05:14;;;;;;;4.38;2.42;;;;;;;;;;5029574;28;20112;-67
2021/08/24 02:07:39;;;;;;;2.90;2.05;;;;;;;;;;5002450;28;20524;-67
2021/08/24 02:10:08;;;;;;;2.95;2.30;;;;;;;;;;4994198;28;20026;-67
2021/08/24 02:12:34;;;;;;;3.47;2.25;;;;;;;;;;4999190;28;20133;-66
2021/08/24 02:15:00;;;;;;;3.10;2.08;;;;;;;;;;5005292;28;20038;-66
2021/08/24 02:17:27;;;;;;;2.92;2.10;;;;;;;;;;5008038;28;20038;-65
2021/08/24 02:20:04;;;;;;;4.03;2.33;;;;;;;;;;4995263;28;20014;-65
2021/08/24 02:22:34;;;;;;;2.90;2.00;;;;;;;;;;4996941;28;20045;-66
2021/08/24 02:24:59;;;;;;;;;;;;;;;;;;5006281;28;20109;-66
2021/08/24 02:27:29;;;;;;;4.80;2.53;;;;;;;;;;5003673;28;20000;-65
2021/08/24 02:29:54;;;;;;;4.25;2.00;;;;;;;;;;5000030;28;20117;-66
2021/08/24 02:32:31;;;;;;;3.47;2.00;;;;;;;;;;5000804;28;20117;-66
2021/08/24 02:35:00;;;;;;;3.58;2.25;;;;;;;;;;4998396;28;20074;-66
2021/08/24 02:37:30;;;;;;;3.80;2.17;;;;;;;;;;4998318;28;20096;-66
2021/08/24 02:40:11;;;;;;;5.07;2.38;;;;;;;;;;4998825;28;20018;-67
2021/08/24 02:42:42;;;;;;;3.75;2.00;;;;;;;;;;5025526;28;20041;-66
2021/08/24 02:45:13;;;;;;;3.85;2.25;;;;;;;;;;5026541;28;20034;-66
2021/08/24 02:47:39;;;;;;;4.18;2.28;;;;;;;;;;5026725;28;20052;-66
2021/08/24 02:50:05;;;;;;;3.35;2.10;;;;;;;;;;5030062;28;20077;-66
2021/08/24 02:52:32;;;;;;;5.05;2.30;;;;;;;;;;5026068;28;20969;-65
2021/08/24 02:54:57;;;;;;;3.05;1.98;;;;;;;;;;5027902;28;20022;-65
2021/08/24 02:57:22;;;;;;;5.88;2.40;;;;;;;;;;5029732;28;20047;-67
2021/08/24 02:59:47;;;;;;;4.28;2.30;;;;;;;;;;5026218;28;20063;-67
2021/08/24 03:02:13;;;;;;;3.72;2.40;;;;;;;;;;5023636;28;20067;-66
2021/08/24 03:04:39;;;;;;;3.45;2.15;;;;;;;;;;5029991;28;20029;-65
2021/08/24 03:07:09;;;;;;;3.22;2.10;;;;;;;;;;5025571;28;20022;-65
2021/08/24 03:09:35;;;;;;;5.43;2.33;;;;;;;;;;5024254;28;20021;-65
2021/08/24 03:12:06;;;;;;;3.90;2.42;;;;;;;;;;5022961;28;20070;-65
2021/08/24 03:14:37;;;;;;;3.60;2.17;;;;;;;;;;5024965;28;20033;-65
2021/08/24 03:17:20;;;;;;;5.93;2.42;;;;;;;;;;5020998;28;20378;-65
2021/08/24 03:19:47;;;;;;;5.60;2.30;;;;;;;;;;5025739;28;20408;-66
2021/08/24 03:22:13;;;;;;;3.83;2.22;;;;;;;;;;5028164;28;20021;-66
2021/08/24 03:24:38;;;;;;;3.40;2.20;;;;;;;;;;5024510;28;20544;-65
2021/08/24 03:27:05;;;;;;;5.50;2.20;;;;;;;;;;5022431;28;20045;-65
2021/08/24 03:29:30;;;;;;;3.15;2.08;;;;;;;;;;5023892;28;20495;-64
2021/08/24 03:31:56;;;;;;;6.53;2.28;;;;;;;;;;5026348;28;20043;-66
2021/08/24 03:34:22;;;;;;;4.97;2.22;;;;;;;;;;5024575;28;20022;-65
2021/08/24 03:36:47;;;;;;;4.45;2.28;;;;;;;;;;5024190;28;20075;-66
2021/08/24 03:39:13;;;;;;;4.38;2.50;;;;;;;;;;5026528;28;20542;-66
2021/08/24 03:41:38;;;;;;;3.28;2.10;;;;;;;;;;5028702;28;20022;-66
2021/08/24 03:44:03;;;;;;;3.85;2.28;;;;;;;;;;5027606;28;20026;-66
2021/08/24 03:46:28;;;;;;;4.00;2.10;;;;;;;;;;5026729;28;20107;-66
2021/08/24 03:48:54;;;;;;;3.85;2.30;;;;;;;;;;5023008;28;20022;-65
2021/08/24 03:51:19;;;;;;;3.88;2.20;;;;;;;;;;5025292;28;20582;-67
2021/08/24 03:53:44;;;;;;;5.22;2.78;;;;;;;;;;5027877;28;20059;-67
2021/08/24 03:56:09;;;;;;;7.97;2.70;;;;;;;;;;5026862;28;20435;-66
2021/08/24 03:58:35;;;;;;;4.28;2.65;;;;;;;;;;5022820;28;20022;-65
2021/08/24 04:01:01;;;;;;;5.60;2.65;;;;;;;;;;5027932;28;20472;-65
2021/08/24 04:03:26;;;;;;;5.13;2.13;;;;;;;;;;5023743;28;20039;-65
2021/08/24 04:05:58;;;;;;;8.73;2.92;;;;;;;;;;5023447;28;20017;-65
2021/08/24 04:08:23;;;;;;;5.20;2.42;;;;;;;;;;5017033;28;20520;-65
2021/08/24 04:10:51;;;;;;;5.45;3.10;;;;;;;;;;5023323;28;20021;-66
2021/08/24 04:13:16;;;;;;;5.45;2.60;;;;;;;;;;5021525;28;20056;-66
2021/08/24 04:15:41;;;;;;;4.20;2.45;;;;;;;;;;5024932;28;20052;-66
2021/08/24 04:18:06;;;;;;;6.03;3.20;;;;;;;;;;5025854;28;20032;-66
2021/08/24 04:20:32;;;;;;;9.30;3.10;;;;;;;;;;5025600;28;20021;-67
2021/08/24 04:22:57;;;;;;;6.10;2.80;;;;;;;;;;5027268;28;20076;-66
2021/08/24 04:25:23;;;;;;;7.78;3.55;;;;;;;;;;5027217;28;20167;-66
2021/08/24 04:27:48;;;;;;;6.25;3.25;;;;;;;;;;5021055;28;20132;-66
2021/08/24 04:30:13;;;;;;;6.22;3.35;;;;;;;;;;5023135;28;20021;-66
2021/08/24 04:32:41;;;;;;;7.30;3.70;;;;;;;;;;5021486;28;20034;-66
2021/08/24 04:35:07;;;;;;;6.57;3.55;;;;;;;;;;5027328;28;20492;-66
2021/08/24 04:37:32;;;;;;;10.85;3.70;;;;;;;;;;5024490;28;20096;-66
2021/08/24 04:39:57;;;;;;;7.25;3.70;;;;;;;;;;5020364;28;20121;-66
2021/08/24 04:42:22;;;;;;;6.13;3.63;;;;;;;;;;5024299;28;20033;-66
2021/08/24 04:44:47;;;;;;;8.48;4.00;;;;;;;;;;5028203;28;20360;-66
2021/08/24 04:47:12;;;;;;;6.97;3.90;;;;;;;;;;5026409;28;20488;-65
2021/08/24 04:49:38;;;;;;;6.75;3.67;;;;;;;;;;5027125;28;20052;-66
2021/08/24 04:52:03;;;;;;;6.22;3.78;;;;;;;;;;5027234;28;20041;-65
2021/08/24 04:54:34;;;;;;;6.63;3.28;;;;;;;;;;5026407;28;20393;-66
2021/08/24 04:57:03;;;;;;;7.00;3.88;;;;;;;;;;5026484;28;20507;-65
2021/08/24 04:59:28;;;;;;;8.20;4.25;;;;;;;;;;5025365;28;20029;-65
2021/08/24 05:01:53;;;;;;;5.70;3.40;;;;;;;;;;5026997;28;20031;-66
2021/08/24 05:04:19;;;;;;;8.18;4.70;;;;;;;;;;5026053;28;20398;-66
2021/08/24 05:06:44;;;;;;;7.60;4.13;;;;;;;;;;5019224;28;20068;-66
2021/08/24 05:09:09;;;;;;;7.18;4.15;;;;;;;;;;5024954;28;20272;-65
2021/08/24 05:11:34;;;;;;;8.65;4.20;;;;;;;;;;5021965;28;20299;-65
2021/08/24 05:13:59;;;;;;;7.50;4.00;;;;;;;;;;5024847;28;20948;-66
2021/08/24 05:16:24;;;;;;;7.82;4.28;;;;;;;;;;5029134;28;20032;-66
2021/08/24 05:18:50;;;;;;;12.73;4.40;;;;;;;;;;5016431;28;20091;-65
2021/08/24 05:21:15;;;;;;;7.00;4.15;;;;;;;;;;5031063;28;20032;-66
2021/08/24 05:23:41;;;;;;;8.32;4.70;;;;;;;;;;5026242;28;20030;-65
2021/08/24 05:26:07;;;;;;;9.05;4.55;;;;;;;;;;5030270;28;20416;-66
2021/08/24 05:28:32;;;;;;;13.65;5.07;;;;;;;;;;5025625;28;20104;-66
2021/08/24 05:30:58;;;;;;;10.45;4.80;;;;;;;;;;5030413;28;20163;-66
2021/08/24 05:33:23;;;;;;;8.35;4.88;;;;;;;;;;5031945;28;20029;-65
2021/08/24 05:35:48;;;;;;;8.23;4.47;;;;;;;;;;5026508;28;20464;-67
2021/08/24 05:38:13;;;;;;;8.90;5.03;;;;;;;;;;5027714;28;20029;-66
2021/08/24 05:40:38;;;;;;;7.53;4.53;;;;;;;;;;5025958;28;20158;-65
2021/08/24 05:43:04;;;;;;;8.50;4.45;;;;;;;;;;5022729;28;20311;-66
2021/08/24 05:45:29;;;;;;;13.85;4.70;;;;;;;;;;5023187;28;20022;-65
2021/08/24 05:47:54;;;;;;;8.77;4.70;;;;;;;;;;5027957;28;20108;-67
2021/08/24 05:50:19;;;;;;;8.30;4.90;;;;;;;;;;5031425;28;20413;-66
2021/08/24 05:52:45;;;;;;;7.50;5.00;;;;;;;;;;5024143;28;20284;-66
2021/08/24 05:55:10;;;;;;;9.35;4.80;;;;;;;;;;5027796;28;20025;-66
2021/08/24 05:57:35;;;;;;;8.88;5.22;;;;;;;;;;5021651;28;20060;-66
2021/08/24 06:00:00;;;;;;;8.45;4.47;;;;;;;;;;5031171;28;20017;-66
2021/08/24 06:02:26;;;;;;;9.57;5.05;;;;;;;;;;5031021;28;20021;-66
2021/08/24 06:04:52;;;;;;;9.68;5.30;;;;;;;;;;5029723;28;20578;-65
2021/08/24 06:07:18;;;;;;;8.07;5.28;;;;;;;;;;5031051;28;20064;-66
2021/08/24 06:09:44;;;;;;;10.57;5.65;;;;;;;;;;5028589;28;20045;-66
2021/08/24 06:12:09;;;;;;;11.10;6.45;;;;;;;;;;5022697;28;20033;-68
2021/08/24 06:14:34;;;;;;;11.70;6.80;;;;;;;;;;5023265;28;20021;-70
2021/08/24 06:17:00;;;;;;;11.02;6.00;;;;;;;;;;5029607;28;20477;-69
2021/08/24 06:19:26;;;;;;;9.90;6.20;;;;;;;;;;5023124;28;20025;-70
2021/08/24 06:21:52;;;;;;;7.57;5.53;;;;;;;;;;5023028;28;20029;-69
2021/08/24 06:24:17;;;;;;;10.38;6.47;;;;;;;;;;5027574;28;20303;-70
2021/08/24 06:26:42;;;;;;;10.32;6.72;;;;;;;;;;5027606;28;20026;-70
2021/08/24 06:29:08;;;;;;;11.07;6.53;;;;;;;;;;5022367;28;20032;-68
2021/08/24 06:31:35;;;;;;;12.70;6.88;;;;;;;;;;5024067;28;20517;-70
2021/08/24 06:34:00;;;;;;;10.98;6.22;;;;;;;;;;5029532;28;20101;-70
2021/08/24 06:36:25;;;;;;;9.60;6.32;;;;;;;;;;5027442;28;20104;-70
2021/08/24 06:38:51;;;;;;;10.35;6.25;;;;;;;;;;5030002;28;20029;-69
2021/08/24 06:41:18;;;;;;;10.13;6.40;;;;;;;;;;5029235;28;20029;-69
2021/08/24 06:43:43;;;;;;;10.18;5.93;;;;;;;;;;5024810;28;20020;-69
2021/08/24 06:46:08;;;;;;;10.02;6.35;;;;;;;;;;5026359;28;20021;-69
2021/08/24 06:48:34;;;;;;;10.20;6.50;;;;;;;;;;5027869;28;20405;-70
2021/08/24 06:50:59;;;;;;;8.68;5.93;;;;;;;;;;5029786;28;20093;-61
2021/08/24 06:53:25;;;;;;;8.40;6.18;;;;;;;;;;5026616;28;20043;-62
2021/08/24 06:55:50;;;;;;;9.52;6.15;;;;;;;;;;5028056;28;20431;-62
2021/08/24 06:58:16;;;;;;;10.20;5.80;;;;;;;;;;5025230;28;20010;-61
2021/08/24 07:00:45;;;;;;;9.88;5.97;;;;;;;;;;5019368;28;20022;-63
2021/08/24 07:03:11;;;;;;;9.82;6.30;;;;;;;;;;5021248;28;20462;-61
2021/08/24 07:05:40;;;;;;;9.50;6.40;;;;;;;;;;5026913;28;20029;-62
2021/08/24 07:08:14;;;;;;;9.25;6.20;;;;;;;;;;5022856;28;20496;-63
2021/08/24 07:10:40;;;;;;;9.02;6.35;;;;;;;;;;5021460;28;20086;-61
2021/08/24 07:13:06;;;;;;;8.60;6.72;;;;;;;;;;5023595;28;20476;-60
2021/08/24 07:15:33;;;;;;;8.48;5.97;;;;;;;;;;5028436;28;20745;-61
2021/08/24 07:17:58;;;;;;;9.55;5.72;;;;;;;;;;5023432;28;20030;-60
2021/08/24 07:20:23;;;;;;;7.63;5.60;;;;;;;;;;5022465;28;20431;-59
2021/08/24 07:22:49;;;;;;;8.07;5.63;;;;;;;;;;5028563;28;20491;-61
2021/08/24 07:25:15;;;;;;;9.70;5.93;;;;;;;;;;5024979;28;20021;-59
2021/08/24 07:27:41;;;;;;;7.72;5.63;;;;;;;;;;5027414;28;20056;-60
2021/08/24 07:30:06;;;;;;;7.50;4.95;;;;;;;;;;5025828;28;20050;-61
2021/08/24 07:32:32;;;;;;;8.32;4.82;;;;;;;;;;5026000;28;20037;-68
2021/08/24 07:34:57;;;;;;;8.35;5.45;;;;;;;;;;5028516;28;20158;-61
2021/08/24 07:37:22;;;;;;;7.30;5.60;;;;;;;;;;5032669;28;20036;-60
2021/08/24 07:39:47;;;;;;;7.05;5.30;;;;;;;;;;5019912;28;20268;-64
2021/08/24 07:42:13;;;;;;;7.00;4.90;;;;;;;;;;5028485;28;20036;-60
2021/08/24 07:44:38;;;;;;;7.47;5.43;;;;;;;;;;5020604;28;20049;-60
2021/08/24 07:47:06;;;;;;;8.10;5.78;;;;;;;;;;5027307;28;20017;-60
2021/08/24 07:49:34;;;;;;;8.73;6.00;;;;;;;;;;5027841;28;20042;-60
2021/08/24 07:51:59;;;;;;;8.80;5.85;;;;;;;;;;5023018;28;20041;-60
2021/08/24 07:54:25;;;;;;;11.20;6.35;;;;;;;;;;5020897;28;20018;-61
2021/08/24 07:56:50;;;;;;;8.18;5.97;;;;;;;;;;5023875;28;20480;-61
2021/08/24 07:59:15;;;;;;;9.52;5.95;;;;;;;;;;5025400;28;20029;-62
2021/08/24 08:01:40;;;;;;;8.17;6.10;;;;;;;;;;5020679;28;20067;-60
2021/08/24 08:04:05;;;;;;;10.55;5.65;;;;;;;;;;5021798;28;20268;-61
2021/08/24 08:06:30;;;;;;;8.60;5.97;;;;;;;;;;5024821;28;20135;-61
2021/08/24 08:08:56;;;;;;;8.73;6.82;;;;;;;;;;5020277;28;20492;-61
2021/08/24 08:11:21;;;;;;;10.38;6.88;;;;;;;;;;5015591;28;20038;-61
2021/08/24 08:13:46;;;;;;;9.13;6.25;;;;;;;;;;5013544;28;20493;-61
2021/08/24 08:16:11;;;;;;;8.93;6.95;;;;;;;;;;5023500;28;20030;-61
2021/08/24 08:18:36;;;;;;;10.95;7.78;;;;;;;;;;5029709;28;20033;-59
2021/08/24 08:21:02;;;;;;;10.85;7.38;;;;;;;;;;5022090;28;20013;-61
2021/08/24 08:23:27;;;;;;;9.88;7.03;;;;;;;;;;5031635;28;20026;-60
2021/08/24 08:25:52;;;;;;;14.00;7.40;;;;;;;;;;5016770;28;20024;-61
2021/08/24 08:28:18;;;;;;;16.92;9.50;;;;;;;;;;5020290;28;20037;-61
2021/08/24 08:30:44;;;;;;;11.73;8.90;;;;;;;;;;5027700;28;20088;-60
2021/08/24 08:33:09;;;;;;;11.15;7.28;;;;;;;;;;5023137;28;20058;-61
2021/08/24 08:35:34;;;;;;;11.63;7.78;;;;;;;;;;5028198;28;20029;-60
2021/08/24 08:37:59;;;;;;;12.45;8.02;;;;;;;;;;5028306;28;20021;-59
2021/08/24 08:40:31;;;;;;;12.30;8.07;;;;;;;;;;5021588;28;20087;-61
2021/08/24 08:42:56;;;;;;;9.18;6.60;;;;;;;;;;5021127;28;20057;-61
2021/08/24 08:45:25;;;;;;;8.63;6.10;;;;;;;;;;5023669;28;20483;-59
2021/08/24 08:47:55;;;;;;;9.85;5.90;;;;;;;;;;5024791;28;20571;-61
2021/08/24 08:50:39;;;;;;;9.07;5.93;;;;;;;;;;5019659;28;20506;-60
2021/08/24 08:53:06;;;;;;;9.57;5.65;;;;;;;;;;5027953;28;20033;-61
2021/08/24 08:55:39;;;;;;;8.15;6.30;;;;;;;;;;5032114;28;20021;-61
2021/08/24 08:58:27;;;;;;;8.43;6.88;;;;;;;;;;5025170;28;20091;-61
2021/08/24 09:00:55;;;;;;;9.13;6.70;;;;;;;;;;5024588;28;20121;-60
2021/08/24 09:03:39;;;;;;;13.00;7.75;;;;;;;;;;5030590;28;20026;-61
2021/08/24 09:06:04;;;;;;;9.98;6.82;;;;;;;;;;5024437;28;20080;-60
2021/08/24 09:08:29;;;;;;;9.15;6.82;;;;;;;;;;5029692;28;20021;-60
2021/08/24 09:10:56;;;;;;;11.68;7.38;;;;;;;;;;5032899;28;20018;-60
2021/08/24 09:13:24;;;;;;;12.10;8.68;;;;;;;;;;5033360;28;20036;-61
2021/08/24 09:15:58;;;;;;;9.57;6.80;;;;;;;;;;5027452;28;20036;-61
2021/08/24 09:18:33;;;;;;;11.88;7.40;;;;;;;;;;5021355;28;20033;-60
2021/08/24 09:21:00;;;;;;;11.15;6.65;;;;;;;;;;5024018;28;20025;-62
2021/08/24 09:23:25;;;;;;;8.95;6.72;;;;;;;;;;5024952;28;20024;-59
2021/08/24 09:26:07;;;;;;;13.27;7.57;;;;;;;;;;5031315;28;20017;-61
2021/08/24 09:28:33;;;;;;;12.05;7.57;;;;;;;;;;5030696;28;20100;-61
2021/08/24 09:30:59;;;;;;;11.80;7.53;;;;;;;;;;5030310;28;20029;-61
2021/08/24 09:33:25;;;;;;;10.45;6.70;;;;;;;;;;5030418;28;20733;-61
2021/08/24 09:35:50;;;;;;;10.95;6.82;;;;;;;;;;5034616;28;20480;-61
2021/08/24 09:38:20;;;;;;;8.85;6.20;;;;;;;;;;5030299;28;20029;-60
2021/08/24 09:40:47;;;;;;;9.63;6.18;;;;;;;;;;5031658;28;20028;-60
2021/08/24 09:43:20;;;;;;;9.18;6.05;;;;;;;;;;5025179;28;20389;-62
2021/08/24 09:45:46;;;;;;;8.63;5.80;;;;;;;;;;5028932;28;20061;-62
2021/08/24 09:48:11;;;;;;;12.13;7.20;;;;;;;;;;5025839;28;20084;-61
2021/08/24 09:50:38;;;;;;;9.40;6.47;;;;;;;;;;5026744;28;20068;-60
2021/08/24 09:53:05;;;;;;;8.75;6.40;;;;;;;;;;5029992;28;20033;-60
2021/08/24 09:55:32;;;;;;;8.25;6.45;;;;;;;;;;5023488;28;20025;-60
2021/08/24 09:58:05;;;;;;;8.32;5.45;;;;;;;;;;5030107;28;20031;-61
2021/08/24 10:00:55;;;;;;;7.85;5.30;;;;;;;;;;5027346;28;20029;-61
2021/08/24 10:03:21;;;;;;;;;;;;;;;;;;5034881;28;20488;-60
2021/08/24 10:05:46;;;;;;;8.45;4.95;;;;;;;;;;5030722;28;19952;-61
2021/08/24 10:08:25;;;;;;;7.57;5.00;;;;;;;;;;5027902;28;20038;-61
2021/08/24 10:10:59;;;;;;;7.00;4.50;;;;;;;;;;5027444;28;20124;-61
2021/08/24 10:13:29;;;;;;;7.93;4.00;;;;;;;;;;5032167;28;20280;-61
2021/08/24 10:16:14;;;;;;;8.38;4.25;;;;;;;;;;5041138;28;20045;-61
2021/08/24 10:18:40;;;;;;;5.95;3.67;;;;;;;;;;5017372;28;20028;-60
2021/08/24 10:21:31;;;;;;;8.55;3.65;;;;;;;;;;5027327;28;20461;-61
2021/08/24 10:23:57;;;;;;;6.03;3.65;;;;;;;;;;5024977;28;20018;-62
2021/08/24 10:26:24;;;;;;;5.18;3.38;;;;;;;;;;5028061;28;20116;-61
2021/08/24 10:28:51;;;;;;;4.47;3.08;;;;;;;;;;5026590;28;20028;-61
2021/08/24 10:31:29;;;;;;;6.57;4.40;;;;;;;;;;5027774;28;20034;-61
2021/08/24 10:33:56;;;;;;;4.85;3.30;;;;;;;;;;5027265;28;20050;-62
2021/08/24 10:36:32;;;;;;;6.40;3.58;;;;;;;;;;5023213;28;20024;-61
2021/08/24 10:38:59;;;;;;;6.05;3.95;;;;;;;;;;5027935;28;20385;-61
2021/08/24 10:41:41;;;;;;;6.07;3.35;;;;;;;;;;5017882;28;20037;-61
2021/08/24 10:44:13;;;;;;;5.45;3.40;;;;;;;;;;5026068;28;20018;-62
2021/08/24 10:46:49;;;;;;;5.00;3.47;;;;;;;;;;5024801;28;20397;-61
2021/08/24 10:49:14;;;;;;;6.00;3.45;;;;;;;;;;5025094;28;21713;-61
2021/08/24 10:51:51;;;;;;;5.27;3.17;;;;;;;;;;5027566;28;20035;-62
2021/08/24 10:54:21;;;;;;;5.97;4.45;;;;;;;;;;5020921;28;20261;-61
2021/08/24 10:56:49;;;;;;;3.95;3.00;;;;;;;;;;5024346;28;20083;-61
2021/08/24 10:59:20;;;;;;;5.25;3.50;;;;;;;;;;5026414;28;20017;-61
2021/08/24 11:01:51;;;;;;;4.63;2.95;;;;;;;;;;5018015;28;20477;-61
2021/08/24 11:04:31;;;;;;;4.75;3.38;;;;;;;;;;5023622;28;20021;-61
2021/08/24 11:07:31;;;;;;;5.65;3.45;;;;;;;;;;5026797;28;20117;-61
2021/08/24 11:10:16;;;;;;;4.10;3.20;;;;;;;;;;5028004;28;20112;-61
2021/08/24 11:12:45;;;;;;;6.03;3.58;;;;;;;;;;5016349;28;20384;-62
2021/08/24 11:15:13;;;;;;;4.65;3.20;;;;;;;;;;5026112;28;20032;-61
2021/08/24 11:17:44;;;;;;;4.95;3.67;;;;;;;;;;5021403;28;20742;-61
2021/08/24 11:20:12;;;;;;;5.43;3.35;;;;;;;;;;5021038;28;20099;-61
2021/08/24 11:22:54;;;;;;;5.38;2.95;;;;;;;;;;5023396;28;20033;-60
2021/08/24 11:25:38;;;;;;;4.32;3.08;;;;;;;;;;5024736;28;20025;-61
2021/08/24 11:28:07;;;;;;;4.45;3.20;;;;;;;;;;5019781;28;20025;-61
2021/08/24 11:30:47;;;;;;;4.68;3.20;;;;;;;;;;5025540;28;20021;-61
2021/08/24 11:33:21;;;;;;;4.15;3.00;;;;;;;;;;5017414;28;20068;-61
2021/08/24 11:35:49;;;;;;;6.22;2.90;;;;;;;;;;5023957;28;20025;-62
2021/08/24 11:38:17;;;;;;;4.68;2.60;;;;;;;;;;5023226;28;20108;-61
2021/08/24 11:40:45;;;;;;;4.88;2.88;;;;;;;;;;5020727;28;20029;-61
2021/08/24 11:43:14;;;;;;;3.70;2.60;;;;;;;;;;5021045;28;20026;-61
2021/08/24 11:45:47;;;;;;;4.50;2.65;;;;;;;;;;5024996;28;20036;-61
2021/08/24 11:48:21;;;;;;;3.55;2.42;;;;;;;;;;5022627;28;20025;-60
2021/08/24 11:51:05;;;;;;;3.88;2.20;;;;;;;;;;5022928;28;20045;-61
2021/08/24 11:53:37;;;;;;;4.22;2.45;;;;;;;;;;5022843;28;20025;-61
2021/08/24 11:56:03;;;;;;;3.65;2.10;;;;;;;;;;5018495;28;20026;-61
2021/08/24 11:58:31;;;;;;;4.18;2.38;;;;;;;;;;5022374;28;20029;-61
2021/08/24 12:01:04;;;;;;;3.67;2.13;;;;;;;;;;5021117;28;20859;-61
2021/08/24 12:03:30;;;;;;;4.68;2.15;;;;;;;;;;5022098;28;20022;-61
2021/08/24 12:06:01;;;;;;;4.20;2.10;;;;;;;;;;5024144;28;20135;-61
2021/08/24 12:08:28;;;;;;;2.92;1.95;;;;;;;;;;5032304;28;20044;-61
2021/08/24 12:10:55;;;;;;;4.68;2.10;;;;;;;;;;5023306;28;20040;-62
2021/08/24 12:13:32;;;;;;;3.33;2.15;;;;;;;;;;5031946;28;20457;-60
2021/08/24 12:16:28;;;;;;;4.32;2.30;;;;;;;;;;5027455;28;20033;-61
2021/08/24 12:19:11;;;;;;;4.80;2.55;;;;;;;;;;5002555;28;20535;-60
2021/08/24 12:21:39;;;;;;;3.38;2.05;;;;;;;;;;5016175;28;20072;-60
2021/08/24 12:24:22;;;;;;;5.88;2.38;;;;;;;;;;5001709;28;20076;-62
2021/08/24 12:26:48;;;;;;;3.60;2.20;;;;;;;;;;5007748;28;20032;-60
2021/08/24 12:29:32;;;;;;;3.08;2.10;;;;;;;;;;5005374;28;20068;-61
2021/08/24 12:31:58;;;;;;;3.25;1.95;;;;;;;;;;5011233;28;20057;-61
2021/08/24 12:34:35;;;;;;;3.22;2.05;;;;;;;;;;5003613;28;20101;-60
2021/08/24 12:37:00;;;;;;;3.53;2.58;;;;;;;;;;5013252;28;20053;-60
2021/08/24 12:39:28;;;;;;;3.45;2.30;;;;;;;;;;5004506;28;20481;-61
2021/08/24 12:42:08;;;;;;;5.80;2.30;;;;;;;;;;5006327;28;20038;-61
2021/08/24 12:44:33;;;;;;;;;;;;;;;;;;5008884;28;20029;-60
2021/08/24 12:47:18;;;;;;;3.88;2.40;;;;;;;;;;5009879;28;19909;-60
2021/08/24 12:49:43;;;;;;;4.78;2.50;;;;;;;;;;5018928;28;20048;-61
2021/08/24 12:52:14;;;;;;;4.70;2.30;;;;;;;;;;5002693;28;20046;-60
2021/08/24 12:55:02;;;;;;;4.57;2.75;;;;;;;;;;5019785;28;20036;-60
2021/08/24 12:57:31;;;;;;;3.40;2.17;;;;;;;;;;5002204;28;20034;-61
2021/08/24 13:00:09;;;;;;;4.72;2.95;;;;;;;;;;5007842;28;20425;-61
2021/08/24 13:02:35;;;;;;;3.90;2.60;;;;;;;;;;5006057;28;20045;-61
2021/08/24 13:05:04;;;;;;;3.13;2.00;;;;;;;;;;5011835;28;20079;-60
2021/08/24 13:07:32;;;;;;;5.80;2.45;;;;;;;;;;5011283;28;20041;-61
2021/08/24 13:10:05;;;;;;;4.78;2.20;;;;;;;;;;5007746;28;20366;-61
2021/08/24 13:12:35;;;;;;;3.47;2.13;;;;;;;;;;5006840;28;20080;-62
2021/08/24 13:15:03;;;;;;;3.70;2.28;;;;;;;;;;5003686;28;20041;-62
2021/08/24 13:17:35;;;;;;;3.47;2.00;;;;;;;;;;5002140;28;20401;-61
2021/08/24 13:20:02;;;;;;;2.65;1.73;;;;;;;;;;5008066;28;20018;-62
2021/08/24 13:22:48;;;;;;;3.63;2.33;;;;;;;;;;5008628;28;20040;-61
2021/08/24 13:25:16;;;;;;;2.25;1.55;;;;;;;;;;5004249;28;20181;-61
2021/08/24 13:27:43;;;;;;;2.72;1.70;;;;;;;;;;5008332;28;20038;-61
2021/08/24 13:30:09;;;;;;;2.63;1.65;;;;;;;;;;5003019;28;20030;-61
2021/08/24 13:32:44;;;;;;;2.20;1.40;;;;;;;;;;5001151;28;20467;-62
2021/08/24 13:35:23;;;;;;;1.90;1.27;;;;;;;;;;5024620;28;20065;-62
2021/08/24 13:37:48;;;;;;;;;;;;;;;;;;5029291;28;20039;-61
2021/08/24 13:40:14;;;;;;;3.60;1.55;;;;;;;;;;5029592;28;19912;-62
2021/08/24 13:42:46;;;;;;;3.43;1.87;;;;;;;;;;5030783;28;20018;-62
2021/08/24 13:45:26;;;;;;;3.47;1.85;;;;;;;;;;5029173;28;20276;-62
2021/08/24 13:47:53;;;;;;;2.95;1.70;;;;;;;;;;5027706;28;20827;-61
2021/08/24 13:50:24;;;;;;;2.40;1.63;;;;;;;;;;5030510;28;20053;-62
2021/08/24 13:52:57;;;;;;;3.97;1.80;;;;;;;;;;5031545;28;20041;-61
2021/08/24 13:55:27;;;;;;;2.75;1.67;;;;;;;;;;5031127;28;20535;-62
2021/08/24 13:57:52;;;;;;;1.63;1.20;;;;;;;;;;5031066;28;20083;-62
2021/08/24 14:00:19;;;;;;;2.05;1.50;;;;;;;;;;5031187;28;20033;-61
2021/08/24 14:02:48;;;;;;;3.92;1.90;;;;;;;;;;5031043;28;20018;-62
2021/08/24 14:05:14;;;;;;;;;;;;;;;;;;5031480;28;20033;-61
2021/08/24 14:07:40;;;;;;;4.55;1.65;;;;;;;;;;5030866;28;19905;-62
2021/08/24 14:10:17;;;;;;;2.83;1.85;;;;;;;;;;5030539;28;20767;-62
2021/08/24 14:12:50;;;;;;;2.10;1.58;;;;;;;;;;5031088;28;20033;-63
2021/08/24 14:15:21;;;;;;;3.00;1.92;;;;;;;;;;5030431;28;20539;-62
2021/08/24 14:17:49;;;;;;;2.08;1.40;;;;;;;;;;5030436;28;20480;-64
2021/08/24 14:20:37;;;;;;;3.92;1.50;;;;;;;;;;5030219;28;20019;-62
2021/08/24 14:23:21;;;;;;;2.38;1.70;;;;;;;;;;4993751;28;20069;-63
2021/08/24 14:25:47;;;;;;;4.05;2.25;;;;;;;;;;4996167;28;20033;-64
2021/08/24 14:28:16;;;;;;;2.85;1.98;;;;;;;;;;4994363;28;20082;-63
2021/08/24 14:30:42;;;;;;;4.07;2.30;;;;;;;;;;5001407;28;20080;-63
2021/08/24 14:33:18;;;;;;;2.85;1.75;;;;;;;;;;4999803;28;20413;-63
2021/08/24 14:35:49;;;;;;;3.05;1.98;;;;;;;;;;5001989;28;20141;-63
2021/08/24 14:38:23;;;;;;;4.25;2.30;;;;;;;;;;4994298;28;20026;-63
2021/08/24 14:40:48;;;;;;;4.35;2.85;;;;;;;;;;5001199;28;20117;-64
2021/08/24 14:43:15;;;;;;;4.18;2.55;;;;;;;;;;4997867;28;20118;-62
2021/08/24 14:45:40;;;;;;;6.10;2.40;;;;;;;;;;4995228;28;20242;-63
2021/08/24 14:48:08;;;;;;;5.97;2.83;;;;;;;;;;5003216;28;20022;-64
2021/08/24 14:50:35;;;;;;;3.15;2.10;;;;;;;;;;5000144;28;20154;-64
2021/08/24 14:53:01;;;;;;;3.67;2.47;;;;;;;;;;5004941;28;20112;-64
2021/08/24 14:55:30;;;;;;;3.97;2.53;;;;;;;;;;4997641;28;20029;-62